createdAt,value
2017-11-24T00:00:17.413Z,100522.75
2017-11-24T00:02:52.231Z,100521.22
2017-11-24T00:05:27.327Z,100521.37
2017-11-24T00:08:01.019Z,100513.30
2017-11-24T00:10:33.208Z,100511.58
2017-11-24T00:13:05.529Z,100502.94
2017-11-24T00:15:39.311Z,100502.29
2017-11-24T00:18:13.203Z,100504.16
2017-11-24T00:20:45.902Z,100511.63
2017-11-24T00:23:19.383Z,100506.23
2017-11-24T00:25:54.635Z,100501.22
2017-11-24T00:28:27.836Z,100497.58
2017-11-24T00:31:03.770Z,100485.16
2017-11-24T00:33:34.847Z,100483.44
2017-11-24T00:36:07.819Z,100489.97
2017-11-24T00:38:40.034Z,100487.05
2017-11-24T00:41:11.836Z,100486.58
2017-11-24T00:43:43.941Z,100484.32
2017-11-24T00:46:18.441Z,100491.95
2017-11-24T00:48:57.377Z,100476.23
2017-11-24T00:51:28.390Z,100477.31
2017-11-24T00:54:02.258Z,100487.80
2017-11-24T00:56:37.886Z,100482.78
2017-11-24T00:59:12.049Z,100481.52
2017-11-24T01:01:44.564Z,100483.34
2017-11-24T01:04:16.882Z,100473.41
2017-11-24T01:06:49.063Z,100460.69
2017-11-24T01:09:21.951Z,100453.27
2017-11-24T01:11:53.961Z,100446.50
2017-11-24T01:14:26.254Z,100442.14
2017-11-24T01:17:00.091Z,100442.56
2017-11-24T01:19:32.751Z,100441.22
2017-11-24T01:22:04.454Z,100435.72
2017-11-24T01:24:37.055Z,100433.30
2017-11-24T01:27:08.960Z,100418.76
2017-11-24T01:29:40.875Z,100413.23
2017-11-24T01:32:14.356Z,100421.09
2017-11-24T01:34:46.960Z,100413.73
2017-11-24T01:37:20.855Z,100405.45
2017-11-24T01:39:53.148Z,100404.11
2017-11-24T01:42:25.056Z,100395.65
2017-11-24T01:44:57.267Z,100397.77
2017-11-24T01:47:30.358Z,100405.61
2017-11-24T01:50:02.260Z,100404.23
2017-11-24T01:52:34.953Z,100388.20
2017-11-24T01:55:07.767Z,100358.92
2017-11-24T01:57:41.460Z,100377.72
2017-11-24T02:00:16.757Z,100370.47
2017-11-24T02:02:49.697Z,100371.03
2017-11-24T02:05:23.554Z,100351.38
2017-11-24T02:08:02.366Z,100340.50
2017-11-24T02:10:36.561Z,100336.63
2017-11-24T02:13:09.163Z,100337.52
2017-11-24T02:15:41.164Z,100322.27
2017-11-24T02:18:13.285Z,100316.30
2017-11-24T02:20:46.204Z,100333.60
2017-11-24T02:23:18.297Z,100354.76
2017-11-24T02:25:50.195Z,100348.38
2017-11-24T02:28:27.799Z,100346.36
2017-11-24T02:31:00.598Z,100343.67
2017-11-24T02:33:32.691Z,100322.36
2017-11-24T02:36:05.096Z,100323.91
2017-11-24T02:38:42.101Z,100330.36
2017-11-24T02:41:15.014Z,100326.02
2017-11-24T02:43:47.715Z,100334.64
2017-11-24T02:46:20.312Z,100336.58
2017-11-24T02:48:52.504Z,100330.31
2017-11-24T02:51:24.809Z,100335.43
2017-11-24T02:53:58.705Z,100323.55
2017-11-24T02:56:33.198Z,100313.66
2017-11-24T02:59:05.905Z,100304.66
2017-11-24T03:01:38.100Z,100294.16
2017-11-24T03:04:10.846Z,100290.85
2017-11-24T03:06:43.611Z,100293.19
2017-11-24T03:09:17.197Z,100292.27
2017-11-24T03:11:49.598Z,100293.25
2017-11-24T03:14:23.200Z,100271.45
2017-11-24T03:16:58.197Z,100279.69
2017-11-24T03:19:30.102Z,100286.52
2017-11-24T03:22:02.208Z,100292.17
2017-11-24T03:24:35.012Z,100285.68
2017-11-24T03:27:07.190Z,100274.48
2017-11-24T03:29:39.095Z,100288.02
2017-11-24T03:32:11.389Z,100299.77
2017-11-24T03:34:43.281Z,100308.59
2017-11-24T03:37:15.496Z,100302.32
2017-11-24T03:39:47.484Z,100297.06
2017-11-24T03:42:19.489Z,100281.36
2017-11-24T03:44:55.120Z,100273.30
2017-11-24T03:47:28.996Z,100244.47
2017-11-24T03:50:01.195Z,100239.12
2017-11-24T03:52:33.187Z,100225.83
2017-11-24T03:55:06.198Z,100203.70
2017-11-24T03:57:38.100Z,100196.48
2017-11-24T04:00:14.933Z,100163.02
2017-11-24T04:02:47.825Z,100163.84
2017-11-24T04:05:19.740Z,100149.53
2017-11-24T04:07:51.638Z,100137.10
2017-11-24T04:10:24.337Z,100116.73
2017-11-24T04:12:58.140Z,100142.00
2017-11-24T04:15:31.051Z,100124.10
2017-11-24T04:18:03.166Z,100113.58
2017-11-24T04:20:35.253Z,100113.27
2017-11-24T04:23:10.168Z,100129.72
2017-11-24T04:25:42.172Z,100150.85
2017-11-24T04:28:14.773Z,100166.32
2017-11-24T04:30:47.457Z,100173.13
2017-11-24T04:33:21.651Z,100187.56
2017-11-24T04:35:54.044Z,100178.41
2017-11-24T04:38:27.342Z,100130.02
2017-11-24T04:40:59.254Z,100102.59
2017-11-24T04:43:32.368Z,100106.03
2017-11-24T04:46:05.137Z,100102.78
2017-11-24T04:48:37.349Z,100111.40
2017-11-24T04:51:10.041Z,100092.52
2017-11-24T04:53:42.936Z,100081.18
2017-11-24T04:56:14.838Z,100089.24
2017-11-24T04:58:47.546Z,100113.12
2017-11-24T05:01:20.727Z,100133.70
2017-11-24T05:03:52.958Z,100127.80
2017-11-24T05:06:25.133Z,100159.06
2017-11-24T05:08:58.750Z,100143.55
2017-11-24T05:11:31.438Z,100141.17
2017-11-24T05:14:03.346Z,100130.36
2017-11-24T05:16:35.821Z,100119.57
2017-11-24T05:19:07.712Z,100123.12
2017-11-24T05:21:40.117Z,100144.10
2017-11-24T05:24:12.112Z,100142.58
2017-11-24T05:26:46.483Z,100147.34
2017-11-24T05:29:18.627Z,100151.80
2017-11-24T05:31:51.520Z,100160.16
2017-11-24T05:34:24.912Z,100172.59
2017-11-24T05:37:07.328Z,100182.87
2017-11-24T05:39:41.028Z,100182.95
2017-11-24T05:42:13.442Z,100205.05
2017-11-24T05:44:46.248Z,100206.95
2017-11-24T05:47:18.861Z,100207.66
2017-11-24T05:50:03.916Z,100214.23
2017-11-24T05:52:36.169Z,100220.63
2017-11-24T05:55:08.974Z,100217.03
2017-11-24T05:57:41.679Z,100228.66
2017-11-24T06:00:17.792Z,100243.65
2017-11-24T06:02:50.220Z,100240.48
2017-11-24T06:05:32.094Z,100237.53
2017-11-24T06:08:05.597Z,100239.44
2017-11-24T06:10:37.726Z,100228.67
2017-11-24T06:13:10.898Z,100231.45
2017-11-24T06:15:43.794Z,100236.72
2017-11-24T06:18:17.031Z,100229.60
2017-11-24T06:20:50.684Z,100216.41
2017-11-24T06:23:28.580Z,100210.71
2017-11-24T06:26:00.698Z,100201.50
2017-11-24T06:28:34.978Z,100178.30
2017-11-24T06:31:08.592Z,100187.11
2017-11-24T06:33:41.008Z,100167.89
2017-11-24T06:36:13.807Z,100169.69
2017-11-24T06:38:47.274Z,100178.05
2017-11-24T06:41:19.973Z,100169.66
2017-11-24T06:43:53.476Z,100153.78
2017-11-24T06:46:28.677Z,100187.99
2017-11-24T06:49:08.972Z,100153.36
2017-11-24T06:51:42.374Z,100150.22
2017-11-24T06:54:14.417Z,100216.57
2017-11-24T06:56:46.971Z,100201.09
2017-11-24T06:59:19.188Z,100244.69
2017-11-24T07:01:52.986Z,100271.81
2017-11-24T07:04:27.677Z,100285.69
2017-11-24T07:07:04.094Z,100316.40
2017-11-24T07:09:40.086Z,100291.00
2017-11-24T07:12:18.182Z,100294.60
2017-11-24T07:14:56.475Z,100283.17
2017-11-24T07:17:29.043Z,100256.59
2017-11-24T07:20:04.604Z,100278.34
2017-11-24T07:22:37.919Z,100273.55
2017-11-24T07:25:09.917Z,100263.02
2017-11-24T07:27:41.929Z,100278.46
2017-11-24T07:30:18.430Z,100271.65
2017-11-24T07:32:58.627Z,100285.39
2017-11-24T07:35:30.829Z,100282.42
2017-11-24T07:38:04.138Z,100301.31
2017-11-24T07:40:37.339Z,100310.03
2017-11-24T07:43:18.970Z,100321.59
2017-11-24T07:45:56.037Z,100317.05
2017-11-24T07:48:28.040Z,100322.96
2017-11-24T07:51:02.201Z,100326.22
2017-11-24T07:53:45.116Z,100334.38
2017-11-24T07:56:20.544Z,100345.05
2017-11-24T07:58:53.757Z,100351.27
2017-11-24T08:01:28.040Z,100355.93
2017-11-24T08:06:44.050Z,100380.59
2017-11-24T08:09:18.841Z,100374.56
2017-11-24T08:11:50.942Z,100386.19
2017-11-24T08:14:23.336Z,100398.53
2017-11-24T08:16:56.835Z,100397.52
2017-11-24T08:19:36.828Z,100387.14
2017-11-24T08:22:11.332Z,100380.47
2017-11-24T08:24:45.338Z,100391.23
2017-11-24T08:27:18.933Z,100388.63
2017-11-24T08:29:51.528Z,100389.05
2017-11-24T08:32:24.719Z,100394.81
2017-11-24T08:34:58.897Z,100402.63
2017-11-24T08:37:32.004Z,100399.25
2017-11-24T08:40:12.710Z,100357.14
2017-11-24T08:42:45.103Z,100412.56
2017-11-24T08:45:18.603Z,100404.52
2017-11-24T08:49:56.111Z,100395.34
2017-11-24T08:52:28.102Z,100419.98
2017-11-24T08:55:01.925Z,100424.86
2017-11-24T08:57:33.904Z,100434.89
2017-11-24T09:00:10.391Z,100408.29
2017-11-24T09:02:55.996Z,100426.02
2017-11-24T09:05:28.710Z,100453.67
2017-11-24T09:08:02.933Z,100446.86
2017-11-24T09:10:36.824Z,100453.28
2017-11-24T09:13:09.960Z,100455.35
2017-11-24T09:15:43.938Z,100469.28
2017-11-24T09:18:17.576Z,100465.28
2017-11-24T09:20:50.347Z,100461.05
2017-11-24T09:23:23.183Z,100456.27
2017-11-24T09:25:55.259Z,100457.88
2017-11-24T09:28:35.971Z,100475.45
2017-11-24T09:31:22.388Z,100470.45
2017-11-24T09:33:56.867Z,100476.96
2017-11-24T09:36:29.776Z,100486.56
2017-11-24T09:39:02.784Z,100487.58
2017-11-24T09:41:35.958Z,100496.99
2017-11-24T09:44:06.930Z,100497.77
2017-11-24T09:46:39.345Z,100509.42
2017-11-24T09:49:11.840Z,100512.86
2017-11-24T09:51:43.851Z,100516.74
2017-11-24T09:54:15.849Z,100525.91
2017-11-24T09:56:49.465Z,100519.09
2017-11-24T09:59:31.883Z,100530.49
2017-11-24T10:02:06.136Z,100526.84
2017-11-24T10:04:39.857Z,100523.42
2017-11-24T10:07:13.645Z,100541.91
2017-11-24T10:09:48.444Z,100552.80
2017-11-24T10:12:19.179Z,100555.86
2017-11-24T10:14:53.461Z,100554.56
2017-11-24T10:17:28.376Z,100555.17
2017-11-24T10:20:04.575Z,100551.84
2017-11-24T10:22:44.310Z,100553.97
2017-11-24T10:25:17.285Z,100549.93
2017-11-24T10:27:52.020Z,100549.62
2017-11-24T10:30:27.757Z,100554.59
2017-11-24T10:33:01.059Z,100554.05
2017-11-24T10:35:34.941Z,100553.27
2017-11-24T10:38:07.911Z,100568.74
2017-11-24T10:40:45.829Z,100570.25
2017-11-24T10:43:19.213Z,100572.48
2017-11-24T10:45:52.421Z,100578.55
2017-11-24T10:48:26.842Z,100559.70
2017-11-24T10:51:04.410Z,100579.63
2017-11-24T10:53:37.713Z,100583.81
2017-11-24T10:56:11.106Z,100552.08
2017-11-24T10:58:43.201Z,100607.70
2017-11-24T11:01:16.102Z,100589.37
2017-11-24T11:03:50.510Z,100598.56
2017-11-24T11:06:26.457Z,100603.13
2017-11-24T11:08:59.878Z,100603.91
2017-11-24T11:11:36.364Z,100605.49
2017-11-24T11:14:09.821Z,100614.80
2017-11-24T11:16:56.497Z,100625.79
2017-11-24T11:19:33.417Z,100613.61
2017-11-24T11:22:07.002Z,100623.05
2017-11-24T11:24:40.908Z,100605.45
2017-11-24T11:27:16.279Z,100626.17
2017-11-24T11:29:49.784Z,100626.89
2017-11-24T11:32:26.745Z,100631.08
2017-11-24T11:35:03.692Z,100627.48
2017-11-24T11:37:38.601Z,100637.72
2017-11-24T11:40:11.766Z,100632.41
2017-11-24T11:42:43.817Z,100632.62
2017-11-24T11:45:20.985Z,100629.87
2017-11-24T11:47:54.968Z,100639.12
2017-11-24T11:53:11.333Z,100644.30
2017-11-24T11:55:45.718Z,100620.08
2017-11-24T11:58:21.107Z,100656.97
2017-11-24T12:00:56.769Z,100657.81
2017-11-24T12:03:31.234Z,100659.25
2017-11-24T12:06:07.443Z,100661.59
2017-11-24T12:08:41.387Z,100658.41
2017-11-24T12:14:07.369Z,100667.25
2017-11-24T12:16:50.485Z,100666.72
2017-11-24T12:19:25.183Z,100665.84
2017-11-24T12:22:00.284Z,100663.20
2017-11-24T12:24:38.765Z,100663.27
2017-11-24T12:27:12.087Z,100666.37
2017-11-24T12:29:46.992Z,100665.69
2017-11-24T12:32:20.866Z,100665.42
2017-11-24T12:34:58.881Z,100673.19
2017-11-24T12:37:35.693Z,100673.63
2017-11-24T12:40:17.883Z,100675.62
2017-11-24T12:42:57.286Z,100675.98
2017-11-24T12:45:35.185Z,100674.13
2017-11-24T12:53:11.334Z,100676.06
2017-11-24T12:55:45.751Z,100669.16
2017-11-24T12:58:23.105Z,100674.11
2017-11-24T13:01:28.710Z,100659.81
2017-11-24T13:04:15.407Z,100666.43
2017-11-24T13:06:59.924Z,100664.30
2017-11-24T13:09:44.207Z,100654.88
2017-11-24T13:12:23.159Z,100664.52
2017-11-24T13:15:07.387Z,100671.17
2017-11-24T13:17:49.697Z,100671.05
2017-11-24T13:20:31.604Z,100666.34
2017-11-24T13:23:14.042Z,100676.66
2017-11-24T13:26:27.695Z,100671.41
2017-11-24T13:29:12.552Z,100675.23
2017-11-24T13:32:16.118Z,100669.33
2017-11-24T13:34:54.583Z,100675.45
2017-11-24T13:37:37.474Z,100682.14
2017-11-24T13:40:15.788Z,100687.83
2017-11-24T13:42:56.191Z,100697.50
2017-11-24T13:45:46.155Z,100703.71
2017-11-24T13:48:37.038Z,100700.23
2017-11-24T13:51:18.898Z,100707.36
2017-11-24T13:56:59.700Z,100706.60
2017-11-24T13:59:38.238Z,100692.33
2017-11-24T14:02:18.567Z,100714.95
2017-11-24T14:05:01.887Z,100719.98
2017-11-24T14:07:41.616Z,100704.85
2017-11-24T14:10:28.695Z,100722.98
2017-11-24T14:13:08.084Z,100727.17
2017-11-24T14:15:44.084Z,100728.44
2017-11-24T14:21:15.719Z,100734.95
2017-11-24T14:23:59.136Z,100740.00
2017-11-24T14:26:50.070Z,100740.22
2017-11-24T14:29:46.343Z,100735.47
2017-11-24T14:32:28.278Z,100741.27
2017-11-24T14:35:10.650Z,100739.57
2017-11-24T14:37:50.024Z,100747.84
2017-11-24T14:40:37.383Z,100741.06
2017-11-24T14:43:28.720Z,100751.08
2017-11-24T14:46:17.777Z,100757.65
2017-11-24T14:49:15.500Z,100758.34
2017-11-24T14:52:04.562Z,100755.39
2017-11-24T14:54:50.949Z,100757.52
2017-11-24T14:57:35.214Z,100750.40
2017-11-24T15:00:26.904Z,100761.73
2017-11-24T15:03:09.560Z,100766.20
2017-11-24T15:05:52.812Z,100760.48
2017-11-24T15:08:44.497Z,100757.61
2017-11-24T15:11:24.496Z,100752.50
2017-11-24T15:16:58.314Z,100758.82
2017-11-24T15:19:39.658Z,100760.80
2017-11-24T15:22:29.651Z,100746.61
2017-11-24T15:25:13.076Z,100736.97
2017-11-24T15:28:05.716Z,100749.20
2017-11-24T15:30:49.631Z,100744.98
2017-11-24T15:33:38.964Z,100755.42
2017-11-24T15:36:20.322Z,100757.67
2017-11-24T15:39:22.283Z,100766.52
2017-11-24T15:47:56.803Z,100767.83
2017-11-24T15:50:45.100Z,100771.84
2017-11-24T15:53:31.474Z,100766.63
2017-11-24T15:56:17.591Z,100774.31
2017-11-24T15:59:05.507Z,100769.20
2017-11-24T16:01:50.597Z,100768.52
2017-11-24T16:04:36.028Z,100770.55
2017-11-24T16:07:34.927Z,100754.97
2017-11-24T16:10:19.378Z,100764.79
2017-11-24T16:13:11.491Z,100764.03
2017-11-24T16:16:03.578Z,100774.89
2017-11-24T16:18:41.062Z,100779.05
2017-11-24T16:21:24.876Z,100772.78
2017-11-24T16:26:56.770Z,100748.73
2017-11-24T16:29:40.103Z,100772.66
2017-11-24T16:32:21.300Z,100767.81
2017-11-24T16:40:55.864Z,100763.54
2017-11-24T16:43:36.703Z,100769.91
2017-11-24T16:46:20.058Z,100764.95
2017-11-24T16:49:06.516Z,100761.71
2017-11-24T16:51:47.520Z,100761.63
2017-11-24T16:54:35.234Z,100764.95
2017-11-24T16:57:22.346Z,100753.73
2017-11-24T17:00:16.174Z,100764.59
2017-11-24T17:03:05.377Z,100770.27
2017-11-24T17:05:46.867Z,100769.02
2017-11-24T17:08:33.403Z,100749.61
2017-11-24T17:11:18.358Z,100772.35
2017-11-24T17:14:02.060Z,100774.92
2017-11-24T17:16:55.217Z,100774.48
2017-11-24T17:19:40.463Z,100784.22
2017-11-24T17:22:21.651Z,100783.66
2017-11-24T17:25:26.048Z,100784.06
2017-11-24T17:28:24.083Z,100767.12
2017-11-24T17:31:09.764Z,100781.41
2017-11-24T17:34:01.968Z,100785.21
2017-11-24T17:36:44.154Z,100788.47
2017-11-24T17:39:28.543Z,100785.97
2017-11-24T17:45:23.546Z,100781.63
2017-11-24T17:50:52.287Z,100793.44
2017-11-24T17:53:34.853Z,100774.30
2017-11-24T17:56:23.070Z,100800.00
2017-11-24T17:59:15.777Z,100802.11
2017-11-24T18:02:17.035Z,100799.44
2017-11-24T18:05:17.171Z,100796.05
2017-11-24T18:10:59.836Z,100794.86
2017-11-24T18:13:44.034Z,100796.67
2017-11-24T18:16:23.142Z,100792.96
2017-11-24T18:19:07.337Z,100793.93
2017-11-24T18:21:47.847Z,100791.29
2017-11-24T18:24:27.116Z,100770.72
2017-11-24T18:29:55.615Z,100791.62
2017-11-24T18:32:40.966Z,100797.38
2017-11-24T18:38:21.657Z,100803.44
2017-11-24T18:41:14.411Z,100803.56
2017-11-24T18:44:12.207Z,100803.86
2017-11-24T18:50:00.928Z,100809.67
2017-11-24T18:52:45.087Z,100807.68
2017-11-24T18:55:32.116Z,100808.77
2017-11-24T18:58:28.905Z,100815.98
2017-11-24T19:01:09.298Z,100813.97
2017-11-24T19:03:52.204Z,100810.20
2017-11-24T19:06:47.466Z,100803.73
2017-11-24T19:12:21.672Z,100809.06
2017-11-24T19:15:12.845Z,100796.55
2017-11-24T19:17:58.809Z,100808.34
2017-11-24T19:20:43.517Z,100803.92
2017-11-24T19:26:27.941Z,100811.88
2017-11-24T19:29:12.790Z,100810.69
2017-11-24T19:31:53.796Z,100817.41
2017-11-24T19:34:33.737Z,100812.70
2017-11-24T19:37:16.528Z,100809.27
2017-11-24T19:39:54.132Z,100803.73
2017-11-24T19:42:32.901Z,100803.08
2017-11-24T19:45:27.196Z,100804.09
2017-11-24T19:50:35.076Z,100801.91
2017-11-24T19:53:14.642Z,100799.86
2017-11-24T19:56:03.901Z,100801.06
2017-11-24T19:58:49.167Z,100803.17
2017-11-24T20:01:30.892Z,100796.94
2017-11-24T20:04:16.968Z,100791.66
2017-11-24T20:07:07.204Z,100793.16
2017-11-24T20:09:50.856Z,100785.90
2017-11-24T20:12:32.396Z,100766.24
2017-11-24T20:15:21.492Z,100786.81
2017-11-24T20:17:59.769Z,100774.82
2017-11-24T20:20:44.802Z,100774.97
2017-11-24T20:26:20.596Z,100765.49
2017-11-24T20:28:58.132Z,100764.30
2017-11-24T20:31:37.494Z,100761.84
2017-11-24T20:34:18.229Z,100771.37
2017-11-24T20:36:59.900Z,100772.57
2017-11-24T20:39:43.801Z,100770.81
2017-11-24T20:42:29.801Z,100774.69
2017-11-24T20:45:30.602Z,100767.81
2017-11-24T20:48:21.690Z,100762.38
2017-11-24T20:51:25.002Z,100763.66
2017-11-24T20:54:14.239Z,100759.52
2017-11-24T20:56:52.718Z,100759.45
2017-11-24T20:59:35.147Z,100759.37
2017-11-24T21:02:20.626Z,100758.11
2017-11-24T21:05:38.420Z,100756.66
2017-11-24T21:08:21.743Z,100755.39
2017-11-24T21:11:00.015Z,100754.34
2017-11-24T21:13:42.413Z,100759.31
2017-11-24T21:16:26.329Z,100752.88
2017-11-24T21:19:08.008Z,100749.72
2017-11-24T21:21:55.310Z,100752.17
2017-11-24T21:24:37.140Z,100750.70
2017-11-24T21:27:29.714Z,100746.47
2017-11-24T21:30:15.613Z,100740.03
2017-11-24T21:33:01.713Z,100743.26
2017-11-24T21:35:45.622Z,100737.42
2017-11-24T21:38:25.519Z,100742.14
2017-11-24T21:41:02.207Z,100726.80
2017-11-24T21:43:38.640Z,100740.52
2017-11-24T21:46:14.740Z,100736.52
2017-11-24T21:49:00.949Z,100734.83
2017-11-24T21:51:43.080Z,100723.48
2017-11-24T21:54:22.532Z,100716.55
2017-11-24T21:56:59.267Z,100708.03
2017-11-24T21:59:32.844Z,100719.81
2017-11-24T22:02:08.431Z,100713.16
2017-11-24T22:04:43.333Z,100702.99
2017-11-24T22:07:25.146Z,100696.81
2017-11-24T22:10:10.267Z,100704.40
2017-11-24T22:12:53.031Z,100690.03
2017-11-24T22:15:33.634Z,100690.65
2017-11-24T22:18:11.057Z,100685.19
2017-11-24T22:20:48.719Z,100686.73
2017-11-24T22:23:25.715Z,100686.14
2017-11-24T22:26:07.252Z,100687.58
2017-11-24T22:28:58.244Z,100690.59
2017-11-24T22:31:45.385Z,100685.39
2017-11-24T22:34:27.951Z,100681.88
2017-11-24T22:37:06.965Z,100661.47
2017-11-24T22:39:46.652Z,100681.55
2017-11-24T22:42:23.468Z,100683.50
2017-11-24T22:45:00.878Z,100680.54
2017-11-24T22:47:44.468Z,100673.05
2017-11-24T22:50:21.478Z,100671.44
2017-11-24T22:52:57.360Z,100675.51
2017-11-24T22:55:35.031Z,100674.25
2017-11-24T22:58:23.037Z,100668.41
2017-11-24T23:01:03.271Z,100670.72
2017-11-24T23:03:41.949Z,100672.73
2017-11-24T23:06:19.742Z,100674.78
2017-11-24T23:08:57.422Z,100671.77
2017-11-24T23:11:37.010Z,100664.37
2017-11-24T23:14:12.474Z,100670.72
2017-11-24T23:16:48.658Z,100659.66
2017-11-24T23:19:26.019Z,100665.14
2017-11-24T23:22:01.098Z,100663.38
2017-11-24T23:24:37.355Z,100665.97
2017-11-24T23:27:15.793Z,100664.41
2017-11-24T23:29:50.384Z,100659.98
2017-11-24T23:32:25.500Z,100659.30
2017-11-24T23:35:01.757Z,100653.97
2017-11-24T23:37:35.651Z,100653.89
2017-11-24T23:40:10.872Z,100650.02
2017-11-24T23:42:42.942Z,100642.71
2017-11-24T23:45:21.348Z,100639.65
2017-11-24T23:47:54.344Z,100637.08
2017-11-24T23:50:25.375Z,100633.91
2017-11-24T23:52:59.530Z,100626.55
2017-11-24T23:55:32.970Z,100620.12
2017-11-24T23:58:05.456Z,100624.71
